Time;durP1;ratioP1;P1;durP2;ratioP2;P2;SDS_P1;SDS_P2;PMS_P1;PMS_P2;Temp;Humidity;BMP_temperature;BMP_pressure;BME280_temperature;BME280_humidity;BME280_pressure;Samples;Min_cycle;Max_cycle;Signal;HPM_P1;HPM_P2
2022/11/13 00:00:22;;;;;;;34.75;22.98;;;5.00;99.90;;;;;;5138519;28;20050;-90
2022/11/13 00:02:48;;;;;;;35.45;23.83;;;5.00;99.90;;;;;;5102051;28;20055;-91
2022/11/13 00:05:14;;;;;;;36.28;24.10;;;5.10;99.90;;;;;;5112636;28;20482;-91
2022/11/13 00:07:41;;;;;;;34.90;24.27;;;5.10;99.90;;;;;;5076780;28;20079;-91
2022/11/13 00:10:07;;;;;;;38.33;25.42;;;5.20;99.90;;;;;;5111724;28;20073;-92
2022/11/13 00:12:32;;;;;;;36.28;24.25;;;5.20;99.90;;;;;;5114433;28;20039;-91
2022/11/13 00:14:58;;;;;;;43.78;27.10;;;5.30;99.90;;;;;;5077697;28;20577;-92
2022/11/13 00:17:24;;;;;;;37.95;26.13;;;5.40;99.90;;;;;;5068614;28;20100;-90
2022/11/13 00:19:49;;;;;;;38.85;25.13;;;5.50;99.90;;;;;;5065275;28;20055;-92
2022/11/13 00:22:15;;;;;;;38.80;25.30;;;6.70;99.90;;;;;;5080124;28;20039;-92
2022/11/13 00:24:40;;;;;;;40.90;26.15;;;5.60;99.90;;;;;;5101146;28;20050;-92
2022/11/13 00:27:06;;;;;;;37.80;25.33;;;5.70;99.90;;;;;;5111803;28;20135;-92
2022/11/13 00:29:32;;;;;;;43.72;26.98;;;6.40;99.90;;;;;;5096990;28;20074;-91
2022/11/13 00:31:57;;;;;;;41.63;26.55;;;5.70;99.90;;;;;;5079346;28;20039;-92
2022/11/13 00:34:23;;;;;;;40.63;26.73;;;5.80;99.90;;;;;;5113872;28;20035;-92
2022/11/13 00:36:48;;;;;;;43.83;27.85;;;5.80;99.90;;;;;;5113417;28;20050;-91
2022/11/13 00:39:14;;;;;;;45.35;28.35;;;6.80;99.90;;;;;;5096241;28;20086;-91
2022/11/13 00:41:40;;;;;;;41.38;27.15;;;5.70;99.90;;;;;;5096589;28;20126;-90
2022/11/13 00:44:05;;;;;;;41.03;27.65;;;5.70;99.90;;;;;;5082121;28;20059;-92
2022/11/13 00:46:31;;;;;;;42.90;28.67;;;5.70;99.90;;;;;;5096480;28;20371;-91
2022/11/13 00:48:57;;;;;;;40.10;26.90;;;5.70;99.90;;;;;;5095951;28;20044;-91
2022/11/13 00:51:22;;;;;;;41.28;26.05;;;5.90;99.90;;;;;;5079211;28;20039;-89
2022/11/13 00:53:48;;;;;;;42.53;25.10;;;5.80;99.90;;;;;;5082073;28;20044;-92
2022/11/13 00:56:14;;;;;;;36.70;24.92;;;5.80;99.90;;;;;;5062730;28;20055;-92
2022/11/13 00:58:39;;;;;;;35.97;24.20;;;5.80;99.90;;;;;;5096558;28;20044;-92
2022/11/13 01:01:13;;;;;;;39.38;24.63;;;6.30;99.90;;;;;;5108116;28;20040;-89
2022/11/13 01:03:39;;;;;;;38.03;25.35;;;5.80;99.90;;;;;;5097954;28;20091;-90
2022/11/13 01:06:12;;;;;;;39.13;24.33;;;7.30;99.90;;;;;;5082593;28;20031;-88
2022/11/13 01:08:38;;;;;;;38.60;23.42;;;5.70;99.90;;;;;;5060147;28;20040;-92
2022/11/13 01:11:11;;;;;;;35.63;23.92;;;5.70;99.90;;;;;;5054857;28;20044;-92
2022/11/13 01:13:40;;;;;;;36.08;24.63;;;5.70;99.90;;;;;;5070488;28;20020;-91
2022/11/13 01:16:07;;;;;;;39.72;25.10;;;5.70;99.90;;;;;;5074174;28;20070;-90
2022/11/13 01:18:33;;;;;;;36.05;25.70;;;5.70;99.90;;;;;;5100360;28;20059;-91
2022/11/13 01:21:07;;;;;;;39.65;25.02;;;5.70;99.90;;;;;;5085381;28;20486;-91
2022/11/13 01:23:33;;;;;;;37.15;25.85;;;5.60;99.90;;;;;;5078932;28;20078;-92
2022/11/13 01:26:09;;;;;;;34.78;22.63;;;6.00;99.90;;;;;;5078780;28;20063;-92
2022/11/13 01:28:35;;;;;;;35.08;24.77;;;5.80;99.90;;;;;;5062233;28;20048;-91
2022/11/13 01:31:04;;;;;;;37.20;25.00;;;5.80;99.90;;;;;;5058157;28;20480;-92
2022/11/13 01:33:29;;;;;;;41.33;25.55;;;5.70;99.90;;;;;;5057358;28;20515;-92
2022/11/13 01:36:00;;;;;;;34.42;24.20;;;5.70;99.90;;;;;;5082204;28;20027;-91
2022/11/13 01:38:25;;;;;;;37.08;25.10;;;5.70;99.90;;;;;;5042625;28;20043;-92
2022/11/13 01:40:51;;;;;;;37.50;24.70;;;5.60;99.90;;;;;;5094985;28;20376;-91
2022/11/13 01:43:31;;;;;;;37.25;25.75;;;5.60;99.90;;;;;;5079233;28;20045;-91
2022/11/13 01:46:05;;;;;;;41.63;25.70;;;5.60;99.90;;;;;;5056449;28;20059;-92
2022/11/13 01:48:37;;;;;;;36.45;25.60;;;5.70;99.90;;;;;;5055172;28;20503;-91
2022/11/13 01:51:13;;;;;;;38.22;25.70;;;5.60;99.90;;;;;;5044265;28;20050;-90
2022/11/13 01:53:39;;;;;;;40.40;26.10;;;5.60;99.90;;;;;;5055802;28;20124;-92
2022/11/13 01:56:06;;;;;;;38.42;24.58;;;6.70;99.90;;;;;;5045101;28;20127;-92
2022/11/13 01:58:31;;;;;;;36.38;23.58;;;5.70;99.90;;;;;;5058996;28;20048;-91
2022/11/13 02:00:57;;;;;;;35.22;23.25;;;5.80;99.90;;;;;;5061149;28;20073;-91
2022/11/13 02:03:23;;;;;;;38.13;23.45;;;5.80;99.90;;;;;;5094765;28;20100;-90
2022/11/13 02:05:48;;;;;;;38.72;24.52;;;6.20;99.90;;;;;;5078454;28;20040;-92
2022/11/13 02:08:14;;;;;;;35.03;24.25;;;5.70;99.90;;;;;;5076072;28;20043;-92
2022/11/13 02:10:40;;;;;;;35.95;23.58;;;5.60;99.90;;;;;;5074740;28;20044;-91
2022/11/13 02:13:05;;;;;;;36.72;24.73;;;6.30;99.90;;;;;;5058693;28;20433;-92
2022/11/13 02:15:31;;;;;;;39.08;25.25;;;5.60;99.90;;;;;;5045082;28;20082;-92
2022/11/13 02:17:57;;;;;;;36.17;24.45;;;5.70;99.90;;;;;;5061629;28;20452;-92
2022/11/13 02:20:29;;;;;;;37.83;24.92;;;7.00;99.90;;;;;;5051803;28;20229;-92
2022/11/13 02:23:05;;;;;;;36.58;23.90;;;5.50;99.90;;;;;;5073746;28;20027;-89
2022/11/13 02:25:31;;;;;;;33.78;23.88;;;6.30;99.90;;;;;;5086067;28;20023;-90
2022/11/13 02:27:57;;;;;;;35.53;25.08;;;5.90;99.90;;;;;;5078350;28;20087;-90
2022/11/13 02:30:27;;;;;;;37.55;25.52;;;5.40;99.90;;;;;;5098479;28;20035;-87
2022/11/13 02:32:54;;;;;;;34.95;23.98;;;5.30;99.90;;;;;;5067448;28;20053;-90
2022/11/13 02:35:23;;;;;;;36.50;24.02;;;5.90;99.90;;;;;;5061951;28;20089;-92
2022/11/13 02:37:49;;;;;;;36.47;23.15;;;5.30;99.90;;;;;;5058874;28;20040;-91
2022/11/13 02:40:15;;;;;;;34.63;22.88;;;5.50;99.90;;;;;;5076872;28;20124;-91
2022/11/13 02:42:41;;;;;;;33.03;23.83;;;5.30;99.90;;;;;;5079015;28;20036;-91
2022/11/13 02:45:07;;;;;;;36.13;24.60;;;6.50;99.90;;;;;;5063542;28;20082;-93
2022/11/13 02:47:33;;;;;;;36.03;23.60;;;5.30;99.90;;;;;;5090977;28;20102;-92
2022/11/13 02:49:58;;;;;;;36.97;23.73;;;5.30;99.90;;;;;;5055236;28;20115;-92
2022/11/13 02:52:24;;;;;;;37.00;23.92;;;5.20;99.90;;;;;;5098200;28;20040;-94
2022/11/13 02:54:50;;;;;;;38.58;24.42;;;5.30;99.90;;;;;;5098583;28;20043;-92
2022/11/13 02:57:15;;;;;;;37.40;23.65;;;5.20;99.90;;;;;;5064862;28;20372;-93
2022/11/13 02:59:41;;;;;;;34.33;23.38;;;5.60;99.90;;;;;;5098513;28;20035;-92
2022/11/13 03:02:06;;;;;;;34.03;23.83;;;5.80;99.90;;;;;;5071704;28;20047;-89
2022/11/13 03:04:32;;;;;;;33.92;23.70;;;5.50;99.90;;;;;;5077904;28;20098;-91
2022/11/13 03:06:58;;;;;;;38.97;22.50;;;5.90;99.90;;;;;;5088553;27;20047;-90
2022/11/13 03:09:23;;;;;;;35.85;21.83;;;5.80;99.90;;;;;;5102041;27;20057;-92
2022/11/13 03:11:49;;;;;;;31.40;21.30;;;5.80;99.90;;;;;;5104205;27;20114;-91
2022/11/13 03:14:15;;;;;;;33.42;22.25;;;5.80;99.90;;;;;;5104017;27;20039;-90
2022/11/13 03:16:40;;;;;;;33.13;22.75;;;5.80;99.90;;;;;;5118860;27;20074;-90
2022/11/13 03:19:06;;;;;;;33.65;23.02;;;5.80;99.90;;;;;;5092667;28;20043;-92
2022/11/13 03:21:32;;;;;;;34.72;21.77;;;5.90;99.90;;;;;;5078032;27;20058;-92
2022/11/13 03:23:58;;;;;;;34.58;22.73;;;6.00;99.90;;;;;;5094996;28;20040;-91
2022/11/13 03:26:26;;;;;;;33.00;22.23;;;6.00;99.90;;;;;;5076511;27;20431;-92
2022/11/13 03:28:52;;;;;;;33.75;22.50;;;7.30;99.90;;;;;;5085071;27;20043;-91
2022/11/13 03:31:17;;;;;;;32.45;22.40;;;6.20;99.90;;;;;;5080693;28;20092;-91
2022/11/13 03:33:43;;;;;;;33.72;20.98;;;6.30;99.90;;;;;;5114538;27;20035;-92
2022/11/13 03:36:09;;;;;;;33.85;22.10;;;6.10;99.90;;;;;;5109206;28;20049;-91
2022/11/13 03:38:35;;;;;;;30.15;20.00;;;6.00;99.90;;;;;;5067014;27;20130;-91
2022/11/13 03:41:00;;;;;;;29.60;20.75;;;5.90;99.90;;;;;;5113460;28;20036;-88
2022/11/13 03:43:26;;;;;;;28.73;20.48;;;5.90;99.90;;;;;;5100220;27;20061;-88
2022/11/13 03:45:51;;;;;;;28.48;18.52;;;5.80;99.90;;;;;;5124518;27;20058;-92
2022/11/13 03:48:17;;;;;;;26.02;19.25;;;5.90;99.90;;;;;;5106417;27;20110;-90
2022/11/13 03:50:44;;;;;;;28.42;19.90;;;7.30;99.90;;;;;;5106703;27;20043;-91
2022/11/13 03:53:10;;;;;;;27.00;17.95;;;5.80;99.90;;;;;;5101497;27;20074;-92
2022/11/13 03:55:36;;;;;;;27.05;18.00;;;6.10;99.90;;;;;;5083272;27;20039;-91
2022/11/13 03:58:01;;;;;;;29.42;18.95;;;5.70;99.90;;;;;;5118138;27;20078;-93
2022/11/13 04:00:27;;;;;;;29.83;19.77;;;5.80;99.90;;;;;;5080062;28;20044;-90
2022/11/13 04:02:53;;;;;;;28.95;19.88;;;6.80;99.90;;;;;;5083847;27;20123;-92
2022/11/13 04:05:18;;;;;;;30.90;20.65;;;5.80;99.90;;;;;;5079918;28;20448;-91
2022/11/13 04:07:44;;;;;;;31.48;21.10;;;5.10;99.90;;;;;;5092963;27;20094;-92
2022/11/13 04:10:10;;;;;;;31.60;21.35;;;5.00;99.90;;;;;;5100657;27;20035;-90
2022/11/13 04:12:35;;;;;;;29.25;21.30;;;5.10;99.90;;;;;;5083334;27;20039;-92
2022/11/13 04:15:01;;;;;;;35.53;20.98;;;5.00;99.90;;;;;;5083109;27;20082;-92
2022/11/13 04:17:26;;;;;;;26.50;19.13;;;5.00;99.90;;;;;;5100002;27;20043;-91
2022/11/13 04:19:52;;;;;;;27.90;19.52;;;6.40;99.90;;;;;;5079946;28;20074;-90
2022/11/13 04:22:18;;;;;;;29.98;20.15;;;6.50;99.90;;;;;;5110352;27;20066;-91
2022/11/13 04:24:43;;;;;;;26.75;17.95;;;5.00;99.90;;;;;;5086099;27;20081;-91
2022/11/13 04:27:09;;;;;;;28.00;19.77;;;4.90;99.90;;;;;;5098517;27;20039;-92
2022/11/13 04:29:35;;;;;;;28.42;19.55;;;5.00;99.90;;;;;;5099939;27;20035;-92
2022/11/13 04:32:00;;;;;;;28.75;20.25;;;5.70;99.90;;;;;;5099875;27;20192;-91
2022/11/13 04:34:26;;;;;;;33.03;19.92;;;5.10;99.90;;;;;;5099442;27;20100;-91
2022/11/13 04:36:52;;;;;;;34.03;20.55;;;6.10;99.90;;;;;;5100281;27;20046;-91
2022/11/13 04:39:17;;;;;;;31.20;20.17;;;4.70;99.90;;;;;;5100030;27;20031;-91
2022/11/13 04:44:27;;;;;;;32.17;21.42;;;4.50;99.90;;;;;;5102406;27;20039;-91
2022/11/13 04:46:52;;;;;;;34.20;21.35;;;4.90;99.90;;;;;;5100265;27;20047;-91
2022/11/13 04:49:18;;;;;;;31.33;21.42;;;5.90;99.90;;;;;;5096796;28;20188;-91
2022/11/13 04:51:44;;;;;;;30.98;21.23;;;4.50;99.90;;;;;;5093530;27;20061;-91
2022/11/13 04:54:09;;;;;;;35.10;22.08;;;4.50;99.90;;;;;;5113883;27;20120;-91
2022/11/13 04:56:35;;;;;;;35.35;22.83;;;5.20;99.90;;;;;;5103938;27;20099;-90
2022/11/13 04:59:01;;;;;;;36.72;23.02;;;5.00;99.90;;;;;;5134522;27;20035;-89
2022/11/13 05:01:26;;;;;;;35.33;22.50;;;4.90;99.90;;;;;;5105855;27;20023;-87
2022/11/13 05:03:52;;;;;;;34.72;23.08;;;4.40;99.90;;;;;;5140400;27;20047;-88
2022/11/13 05:06:17;;;;;;;38.83;22.50;;;5.60;99.90;;;;;;5121244;27;20090;-90
2022/11/13 05:08:43;;;;;;;37.92;23.52;;;4.80;99.90;;;;;;5110349;27;20043;-91
2022/11/13 05:11:09;;;;;;;37.78;24.05;;;4.40;99.90;;;;;;5099355;27;20035;-91
2022/11/13 05:13:35;;;;;;;38.80;23.15;;;4.30;99.90;;;;;;5082724;27;20108;-93
2022/11/13 05:16:04;;;;;;;37.28;22.85;;;5.50;99.90;;;;;;5099463;27;20031;-90
2022/11/13 05:18:30;;;;;;;34.75;22.92;;;4.40;99.90;;;;;;5099083;27;20054;-91
2022/11/13 05:20:56;;;;;;;33.97;22.88;;;4.30;99.90;;;;;;5099093;27;20035;-91
2022/11/13 05:23:22;;;;;;;37.20;23.50;;;5.10;99.90;;;;;;5086848;27;20031;-90
2022/11/13 05:25:47;;;;;;;38.38;24.35;;;4.30;99.90;;;;;;5066935;27;20079;-92
2022/11/13 05:28:13;;;;;;;39.72;24.23;;;4.40;99.90;;;;;;5099001;27;20041;-90
2022/11/13 05:30:39;;;;;;;40.08;23.95;;;4.40;99.90;;;;;;5116230;27;20039;-92
2022/11/13 05:33:04;;;;;;;35.67;22.55;;;4.40;99.90;;;;;;5099266;28;20041;-90
2022/11/13 05:35:36;;;;;;;34.38;21.77;;;4.40;99.90;;;;;;5116699;27;20104;-92
2022/11/13 05:38:01;;;;;;;32.83;21.85;;;5.50;99.90;;;;;;5099114;27;20039;-92
2022/11/13 05:40:28;;;;;;;38.08;22.27;;;4.60;99.90;;;;;;5098941;27;20062;-91
2022/11/13 05:42:54;;;;;;;36.85;24.83;;;4.50;99.90;;;;;;5098824;28;20088;-91
2022/11/13 05:45:19;;;;;;;35.70;22.33;;;5.60;99.90;;;;;;5098590;28;20039;-91
2022/11/13 05:47:45;;;;;;;38.92;22.75;;;4.90;99.90;;;;;;5098862;28;20428;-91
2022/11/13 05:50:11;;;;;;;33.75;21.23;;;4.80;99.90;;;;;;5115641;28;20072;-91
2022/11/13 05:52:36;;;;;;;35.25;21.65;;;4.80;99.90;;;;;;5098046;28;20490;-92
2022/11/13 05:55:03;;;;;;;34.00;20.42;;;4.80;99.90;;;;;;5098530;28;20426;-90
2022/11/13 05:57:28;;;;;;;35.67;21.55;;;4.30;99.90;;;;;;5098687;28;20043;-87
2022/11/13 05:59:54;;;;;;;39.90;22.67;;;4.70;99.90;;;;;;5099346;28;20444;-91
2022/11/13 06:02:20;;;;;;;37.60;22.23;;;4.10;99.90;;;;;;5115778;28;20050;-91
2022/11/13 06:04:47;;;;;;;41.63;23.40;;;5.60;99.90;;;;;;5078788;28;20047;-91
2022/11/13 06:07:13;;;;;;;34.80;21.92;;;4.10;99.90;;;;;;5074882;28;20064;-91
2022/11/13 06:09:38;;;;;;;38.95;22.73;;;5.20;99.90;;;;;;5095391;28;20047;-92
2022/11/13 06:12:04;;;;;;;39.83;22.35;;;4.20;99.90;;;;;;5079636;28;20043;-91
2022/11/13 06:14:30;;;;;;;39.88;23.02;;;4.00;99.90;;;;;;5119318;28;20066;-89
2022/11/13 06:16:56;;;;;;;37.72;21.30;;;3.90;99.90;;;;;;5120339;28;20020;-87
2022/11/13 06:19:21;;;;;;;40.65;23.73;;;3.90;99.90;;;;;;5123309;28;20030;-91
2022/11/13 06:21:47;;;;;;;43.33;22.50;;;4.00;99.90;;;;;;5139847;28;20032;-88
2022/11/13 06:24:13;;;;;;;39.75;23.60;;;4.00;99.90;;;;;;5119391;28;20054;-92
2022/11/13 06:26:38;;;;;;;42.03;23.35;;;4.00;99.90;;;;;;5079871;28;20047;-91
2022/11/13 06:29:06;;;;;;;45.28;22.60;;;3.90;99.90;;;;;;5076851;28;20040;-93
2022/11/13 06:31:33;;;;;;;38.45;22.55;;;4.00;99.90;;;;;;5086538;28;20071;-92
2022/11/13 06:33:59;;;;;;;39.05;22.27;;;4.00;99.90;;;;;;5099628;28;20047;-92
2022/11/13 06:36:27;;;;;;;43.40;22.35;;;4.20;99.90;;;;;;5095537;28;20043;-92
2022/11/13 06:38:52;;;;;;;41.90;23.30;;;4.10;99.90;;;;;;5079122;28;20051;-92
2022/11/13 06:41:20;;;;;;;40.22;23.17;;;4.90;99.90;;;;;;5078464;28;20046;-91
2022/11/13 06:43:46;;;;;;;41.70;22.92;;;4.20;99.90;;;;;;5078770;28;20043;-91
2022/11/13 06:46:17;;;;;;;41.40;23.48;;;4.20;99.90;;;;;;5090748;28;20036;-92
2022/11/13 06:48:43;;;;;;;40.78;22.13;;;4.40;99.90;;;;;;5081974;28;20043;-91
2022/11/13 06:51:16;;;;;;;39.58;21.10;;;4.40;99.90;;;;;;5099164;28;20432;-91
2022/11/13 06:53:42;;;;;;;53.15;23.80;;;4.40;99.90;;;;;;5099548;28;20048;-92
2022/11/13 06:56:07;;;;;;;45.17;23.02;;;4.40;99.90;;;;;;5065078;28;20035;-90
2022/11/13 06:58:33;;;;;;;35.95;21.40;;;5.30;99.90;;;;;;5065700;28;20047;-92
2022/11/13 07:01:15;;;;;;;37.08;22.38;;;4.30;99.90;;;;;;5074260;28;20052;-91
2022/11/13 07:03:41;;;;;;;37.50;22.02;;;4.20;99.90;;;;;;5079487;28;20120;-90
2022/11/13 07:06:08;;;;;;;33.90;21.17;;;4.20;99.90;;;;;;5098349;28;20069;-93
2022/11/13 07:08:34;;;;;;;34.90;20.92;;;4.20;99.90;;;;;;5081228;28;20058;-92
2022/11/13 07:11:00;;;;;;;38.83;21.30;;;4.30;99.90;;;;;;5077881;28;20040;-90
2022/11/13 07:13:26;;;;;;;32.40;20.02;;;4.60;99.90;;;;;;5081557;28;20043;-92
2022/11/13 07:15:53;;;;;;;26.23;16.35;;;5.90;99.90;;;;;;5094410;28;20043;-94
2022/11/13 07:18:21;;;;;;;31.15;17.83;;;6.00;99.90;;;;;;5071386;28;20379;-91
2022/11/13 07:20:47;;;;;;;29.80;17.55;;;4.60;99.90;;;;;;5067976;28;20126;-91
2022/11/13 07:23:12;;;;;;;28.42;18.85;;;4.60;99.90;;;;;;5093221;28;20122;-91
2022/11/13 07:25:38;;;;;;;26.83;16.83;;;5.70;99.90;;;;;;5092329;28;20035;-92
2022/11/13 07:28:05;;;;;;;24.80;17.48;;;6.20;99.90;;;;;;5088403;28;20066;-89
2022/11/13 07:30:31;;;;;;;25.65;17.75;;;6.10;99.90;;;;;;5130645;28;20179;-90
2022/11/13 07:33:01;;;;;;;25.00;17.38;;;6.00;99.90;;;;;;5103591;27;20031;-88
2022/11/13 07:35:26;;;;;;;24.50;17.10;;;5.00;99.90;;;;;;5093669;28;20032;-90
2022/11/13 07:37:55;;;;;;;26.50;18.67;;;4.60;99.90;;;;;;5101896;28;20031;-90
2022/11/13 07:40:20;;;;;;;25.45;17.73;;;4.40;99.90;;;;;;5088144;28;20024;-89
2022/11/13 07:42:46;;;;;;;30.02;18.95;;;4.60;99.90;;;;;;5110305;28;20134;-92
2022/11/13 07:45:11;;;;;;;24.38;16.50;;;4.50;99.90;;;;;;5098424;28;20092;-91
2022/11/13 07:47:37;;;;;;;28.95;19.38;;;4.60;99.90;;;;;;5098296;28;20043;-91
2022/11/13 07:50:03;;;;;;;28.98;19.65;;;4.90;99.90;;;;;;5097837;28;20049;-91
2022/11/13 07:52:29;;;;;;;27.52;18.13;;;5.00;99.90;;;;;;5098323;28;20039;-92
2022/11/13 07:54:55;;;;;;;25.38;18.13;;;6.90;99.90;;;;;;5097475;28;20085;-91
2022/11/13 07:57:21;;;;;;;29.50;19.02;;;5.80;99.90;;;;;;5098015;28;20035;-92
2022/11/13 07:59:47;;;;;;;26.02;17.83;;;5.70;99.90;;;;;;5097904;28;20051;-91
2022/11/13 08:02:14;;;;;;;22.42;17.60;;;5.80;99.90;;;;;;5097087;28;20039;-91
2022/11/13 08:04:40;;;;;;;24.05;17.20;;;6.40;99.90;;;;;;5097791;28;20036;-91
2022/11/13 08:07:06;;;;;;;24.77;18.30;;;5.70;99.90;;;;;;5096927;28;20054;-91
2022/11/13 08:09:32;;;;;;;25.92;16.73;;;7.00;99.90;;;;;;5098672;28;20471;-90
2022/11/13 08:11:57;;;;;;;23.40;15.15;;;5.70;99.90;;;;;;5087063;28;20167;-91
2022/11/13 08:14:23;;;;;;;22.92;17.13;;;5.80;99.90;;;;;;5092727;28;20063;-91
2022/11/13 08:16:48;;;;;;;23.17;14.35;;;5.80;99.90;;;;;;5107296;28;20146;-91
2022/11/13 08:19:14;;;;;;;27.73;17.25;;;6.80;99.90;;;;;;5098810;28;20089;-90
2022/11/13 08:21:40;;;;;;;24.67;17.70;;;5.80;99.90;;;;;;5107020;28;20087;-88
2022/11/13 08:24:06;;;;;;;24.48;18.65;;;5.80;99.90;;;;;;5115232;28;20047;-89
2022/11/13 08:26:31;;;;;;;30.17;19.25;;;5.80;99.90;;;;;;5103719;28;20039;-90
2022/11/13 08:28:57;;;;;;;31.17;18.48;;;5.70;99.90;;;;;;5119710;28;20053;-89
2022/11/13 08:31:22;;;;;;;25.60;19.17;;;5.70;99.90;;;;;;5099968;28;20044;-88
2022/11/13 08:33:48;;;;;;;22.50;17.20;;;5.80;99.90;;;;;;5126561;28;20047;-88
2022/11/13 08:36:14;;;;;;;26.05;18.50;;;5.90;99.90;;;;;;5081882;28;20040;-92
2022/11/13 08:38:39;;;;;;;25.33;16.50;;;6.00;99.90;;;;;;5115686;28;20040;-91
2022/11/13 08:41:05;;;;;;;21.10;16.73;;;6.20;99.90;;;;;;5100942;28;20046;-92
2022/11/13 08:43:31;;;;;;;23.08;16.45;;;6.50;99.90;;;;;;5094791;28;20048;-89
2022/11/13 08:45:57;;;;;;;23.17;17.05;;;6.70;99.90;;;;;;5126356;27;20051;-91
2022/11/13 08:48:23;;;;;;;22.55;16.55;;;7.10;99.90;;;;;;5119988;28;20035;-88
2022/11/13 08:50:55;;;;;;;24.15;16.65;;;7.40;99.90;;;;;;5115877;28;20028;-88
2022/11/13 08:53:24;;;;;;;24.90;17.75;;;7.80;99.90;;;;;;5120100;28;20023;-87
2022/11/13 08:55:49;;;;;;;20.23;16.38;;;8.20;99.90;;;;;;5119803;28;20069;-89
2022/11/13 08:58:15;;;;;;;19.80;15.88;;;8.50;99.90;;;;;;5136119;28;20051;-89
2022/11/13 09:00:41;;;;;;;23.85;16.55;;;8.30;99.90;;;;;;5093258;28;20107;-86
2022/11/13 09:03:08;;;;;;;18.23;15.18;;;8.10;99.90;;;;;;5085839;28;20058;-88
2022/11/13 09:05:33;;;;;;;20.70;16.30;;;8.20;99.90;;;;;;5060649;28;20612;-88
2022/11/13 09:08:00;;;;;;;21.67;16.13;;;8.00;99.90;;;;;;5092028;27;20086;-87
2022/11/13 09:10:26;;;;;;;21.17;15.77;;;8.00;99.90;;;;;;5090392;27;20417;-88
2022/11/13 09:13:00;;;;;;;18.88;14.80;;;8.00;99.90;;;;;;5076410;28;20096;-86
2022/11/13 09:15:26;;;;;;;17.33;14.45;;;8.00;99.90;;;;;;5092124;27;20111;-87
2022/11/13 09:17:55;;;;;;;17.38;15.45;;;7.90;99.90;;;;;;5067543;28;20156;-87
2022/11/13 09:20:21;;;;;;;18.00;14.35;;;7.90;99.90;;;;;;5055416;27;20130;-87
2022/11/13 09:22:47;;;;;;;20.70;17.30;;;8.00;99.90;;;;;;5090208;27;20123;-88
2022/11/13 09:25:12;;;;;;;38.10;30.00;;;8.00;99.90;;;;;;5105703;28;20046;-87
2022/11/13 09:27:38;;;;;;;23.33;17.70;;;8.00;99.90;;;;;;5069757;27;20043;-87
2022/11/13 09:30:04;;;;;;;17.83;14.30;;;7.90;99.90;;;;;;5087376;27;20099;-87
2022/11/13 09:32:30;;;;;;;18.42;14.70;;;7.90;99.90;;;;;;5095359;27;20039;-85
2022/11/13 09:34:56;;;;;;;19.05;14.05;;;7.90;99.90;;;;;;5076412;27;20043;-84
2022/11/13 09:37:21;;;;;;;18.05;14.18;;;8.30;99.90;;;;;;5094997;27;20035;-88
2022/11/13 09:39:47;;;;;;;17.08;13.45;;;8.70;99.90;;;;;;5111693;28;20086;-85
2022/11/13 09:42:18;;;;;;;19.10;14.13;;;8.80;99.90;;;;;;5094607;27;20127;-87
2022/11/13 09:44:52;;;;;;;18.42;13.23;;;8.70;99.90;;;;;;5069895;28;20047;-87
2022/11/13 09:47:23;;;;;;;19.05;13.85;;;8.60;99.90;;;;;;5080290;28;20197;-88
2022/11/13 09:49:57;;;;;;;18.05;13.15;;;8.60;99.90;;;;;;5080196;28;20051;-88
2022/11/13 09:52:30;;;;;;;15.35;13.55;;;8.60;99.90;;;;;;5060927;27;20047;-87
2022/11/13 09:54:57;;;;;;;16.35;12.85;;;8.70;99.90;;;;;;5080350;27;20049;-88
2022/11/13 09:57:31;;;;;;;18.08;13.57;;;8.70;99.90;;;;;;5071202;27;20084;-86
2022/11/13 10:00:11;;;;;;;14.40;12.52;;;8.60;99.90;;;;;;5125638;27;20051;-84
2022/11/13 10:02:58;;;;;;;15.07;13.02;;;8.60;99.90;;;;;;5124076;27;20015;-85
2022/11/13 10:05:36;;;;;;;17.48;13.25;;;8.50;99.90;;;;;;5116898;27;20035;-86
2022/11/13 10:08:27;;;;;;;17.13;13.32;;;8.50;99.90;;;;;;5110554;27;20043;-87
2022/11/13 10:11:04;;;;;;;15.48;11.93;;;8.40;99.90;;;;;;5095263;27;20047;-86
2022/11/13 10:13:46;;;;;;;17.15;13.65;;;8.50;99.90;;;;;;5093780;27;20399;-89
2022/11/13 10:16:34;;;;;;;17.52;13.57;;;8.50;99.90;;;;;;5080049;27;20048;-86
2022/11/13 10:19:29;;;;;;;17.75;13.65;;;8.40;99.90;;;;;;5114619;27;20103;-86
2022/11/13 10:22:06;;;;;;;17.77;14.30;;;8.40;99.90;;;;;;5065378;27;20125;-87
2022/11/13 10:24:42;;;;;;;19.60;15.15;;;8.50;99.90;;;;;;5093395;27;20044;-86
2022/11/13 10:27:09;;;;;;;17.92;15.07;;;9.00;99.90;;;;;;5095621;27;20494;-87
2022/11/13 10:29:35;;;;;;;16.98;14.23;;;8.70;99.90;;;;;;5078274;27;20124;-87
2022/11/13 10:32:17;;;;;;;16.48;12.77;;;8.70;99.90;;;;;;5107729;28;20554;-87
2022/11/13 10:34:47;;;;;;;16.60;13.55;;;8.80;99.90;;;;;;5083950;28;20051;-86
2022/11/13 10:37:41;;;;;;;15.85;13.45;;;8.90;99.90;;;;;;5067851;28;20082;-85
2022/11/13 10:40:07;;;;;;;15.75;12.98;;;9.00;99.90;;;;;;5085455;28;20082;-85
2022/11/13 10:42:37;;;;;;;14.30;10.77;;;9.10;99.90;;;;;;5090559;27;20043;-85
2022/11/13 10:45:03;;;;;;;15.32;12.48;;;9.30;99.90;;;;;;5116336;27;20454;-86
2022/11/13 10:47:31;;;;;;;15.13;12.70;;;9.30;99.90;;;;;;5088455;27;20051;-85
2022/11/13 10:49:57;;;;;;;15.27;11.13;;;9.40;99.90;;;;;;5087129;27;20070;-86
2022/11/13 10:52:24;;;;;;;15.68;13.10;;;9.60;99.90;;;;;;5086751;27;20664;-85
2022/11/13 10:54:50;;;;;;;15.77;12.32;;;9.60;99.90;;;;;;5121700;27;20065;-86
2022/11/13 10:57:33;;;;;;;17.27;12.50;;;9.70;99.90;;;;;;5087486;27;20392;-86
2022/11/13 10:59:59;;;;;;;15.38;12.10;;;9.80;99.90;;;;;;5105380;27;20059;-86
2022/11/13 11:02:25;;;;;;;13.68;12.05;;;10.10;99.90;;;;;;5087370;27;20050;-86
2022/11/13 11:05:15;;;;;;;15.05;12.32;;;10.10;99.90;;;;;;5084107;27;20040;-86
2022/11/13 11:07:42;;;;;;;14.32;11.45;;;10.20;99.90;;;;;;5085715;27;20043;-85
2022/11/13 11:10:21;;;;;;;14.43;12.55;;;10.30;99.90;;;;;;5100944;27;20456;-86
2022/11/13 11:12:54;;;;;;;14.35;12.48;;;10.30;99.90;;;;;;5130707;27;20035;-84
2022/11/13 11:15:28;;;;;;;13.45;11.30;;;10.30;99.90;;;;;;5108054;27;20024;-85
2022/11/13 11:18:03;;;;;;;16.42;12.38;;;10.30;99.90;;;;;;5107976;27;20043;-86
2022/11/13 11:20:38;;;;;;;;;;;10.40;99.90;;;;;;5086909;27;20046;-86
2022/11/13 11:23:22;;;;;;;13.73;11.73;;;10.50;99.90;;;;;;5100672;27;20022;-86
2022/11/13 11:25:55;;;;;;;14.30;11.70;;;10.50;99.90;;;;;;5085811;27;20106;-86
2022/11/13 11:28:31;;;;;;;15.00;11.15;;;10.60;99.90;;;;;;5103811;27;20375;-86
2022/11/13 11:31:03;;;;;;;13.52;11.00;;;10.70;99.90;;;;;;5086374;27;20039;-86
2022/11/13 11:33:46;;;;;;;12.48;11.18;;;10.80;99.90;;;;;;5084972;27;20395;-85
2022/11/13 11:36:24;;;;;;;14.63;10.73;;;10.90;99.90;;;;;;5105815;27;20054;-84
2022/11/13 11:39:12;;;;;;;12.27;9.90;;;10.90;99.90;;;;;;5107456;27;20494;-86
2022/11/13 11:41:45;;;;;;;11.15;9.93;;;11.30;99.90;;;;;;5087063;27;20101;-86
2022/11/13 11:44:54;;;;;;;13.38;11.07;;;11.30;99.90;;;;;;5084396;27;20054;-86
2022/11/13 11:47:20;;;;;;;13.30;11.05;;;11.40;99.90;;;;;;4999271;28;20072;-86
2022/11/13 11:49:45;;;;;;;12.25;10.90;;;11.40;99.90;;;;;;4999130;28;20095;-85
2022/11/13 11:52:19;;;;;;;11.68;10.27;;;11.40;99.90;;;;;;5017588;27;20051;-86
2022/11/13 11:54:59;;;;;;;13.57;10.67;;;11.40;99.90;;;;;;5100773;27;20047;-86
2022/11/13 11:57:57;;;;;;;12.52;10.88;;;11.50;99.90;;;;;;5100433;27;20043;-85
2022/11/13 12:00:22;;;;;;;12.48;9.80;;;11.60;99.90;;;;;;5099640;27;20051;-86
2022/11/13 12:03:09;;;;;;;11.45;10.10;;;11.60;99.90;;;;;;5082835;27;20061;-85
2022/11/13 12:05:40;;;;;;;13.18;10.82;;;11.60;99.90;;;;;;5116619;27;20289;-86
2022/11/13 12:08:18;;;;;;;11.57;9.85;;;11.70;99.90;;;;;;5081798;27;20051;-87
2022/11/13 12:11:13;;;;;;;16.63;11.00;;;12.00;99.90;;;;;;5100990;27;20112;-86
2022/11/13 12:13:50;;;;;;;15.20;12.23;;;11.90;99.90;;;;;;5089139;27;20051;-88
2022/11/13 12:16:26;;;;;;;11.65;10.05;;;11.90;99.90;;;;;;5109169;27;20043;-87
2022/11/13 12:19:10;;;;;;;11.90;10.60;;;12.00;99.90;;;;;;5074033;27;20052;-86
2022/11/13 12:22:05;;;;;;;11.35;10.15;;;12.00;99.90;;;;;;5077354;27;20177;-86
2022/11/13 12:24:56;;;;;;;13.25;11.23;;;12.10;99.90;;;;;;5063267;27;20052;-86
2022/11/13 12:28:03;;;;;;;11.05;9.88;;;12.20;99.90;;;;;;5099485;27;20051;-84
2022/11/13 12:30:41;;;;;;;12.18;10.07;;;12.10;99.90;;;;;;5107845;27;20031;-87
2022/11/13 12:33:36;;;;;;;10.43;8.95;;;12.10;99.90;;;;;;5112747;27;20045;-89
2022/11/13 12:36:01;;;;;;;12.18;9.50;;;12.30;99.90;;;;;;5085141;28;20059;-87
2022/11/13 12:38:45;;;;;;;13.30;9.60;;;12.30;99.90;;;;;;5046073;28;20051;-87
2022/11/13 12:41:15;;;;;;;11.02;9.48;;;12.30;99.90;;;;;;5086773;27;20054;-89
2022/11/13 12:44:22;;;;;;;11.93;9.73;;;12.20;99.90;;;;;;5067935;27;20066;-87
2022/11/13 12:46:48;;;;;;;11.30;9.60;;;12.20;99.90;;;;;;5114687;27;20078;-90